Latest Weather Observations for Moruya Airport

IDN60801

Issued at 2:33 am EDT Friday 29 January 2021 (issued every 10 minutes, with the page automatically refreshed every 10 minutes)

About weather observations | Map of weather stations | Latest weather observations for NSW | Other Formats
Station Details ID: 069148 Name: MORUYA AIRPORT AWS Lat: -35.90 Lon: 150.14 Height: 4.0 m
Data from the previous 72 hours. | See also: Recent months at Moruya Airport
Date/Time
EDT
Temp
°C
App
Temp
°C
Dew
Point
°C
Rel
Hum
%
Delta-T
°C
Wind Press
QNH
hPa
Press
MSL
hPa
Rain since
9am
mm
Dir  Spd
km/h
Gust
km/h
Spd
kts
Gust
kts
29/02:30am 16.5 17.2 15.5 94 0.6 W 6 15 3 8 1020.9 1020.8 5.0
29/02:00am 16.4 17.0 15.4 94 0.6 WNW 6 11 3 6 1021.1 1021.0 4.6
29/01:30am 16.4 16.4 15.3 93 0.6 WNW 9 13 5 7 1021.3 1021.2 4.4
29/01:00am 16.5 16.6 15.4 93 0.6 WNW 9 13 5 7 1021.6 1021.5 4.2
29/12:30am 16.7 16.8 15.4 92 0.8 WNW 9 15 5 8 1021.8 1021.7 3.8
29/12:00am 16.8 17.4 15.2 90 0.9 NW 6 11 3 6 1022.5 1022.4 3.8
 
Date/Time
EDT
Temp
°C
App
Temp
°C
Dew
Point
°C
Rel
Hum
%
Delta-T
°C
Wind Press
QNH
hPa
Press
MSL
hPa
Rain since
9am
mm
Dir  Spd
km/h
Gust
km/h
Spd
kts
Gust
kts
28/11:30pm 17.7 16.3 14.6 82 1.8 N 15 28 8 15 1022.5 1022.4 3.6
28/11:00pm 18.8 15.8 14.9 78 2.3 ENE 24 30 13 16 1022.2 1022.1 3.6
28/10:30pm 18.4 16.1 15.6 84 1.6 ENE 22 30 12 16 1022.5 1022.4 3.4
28/10:00pm 16.8 17.5 15.7 93 0.6 S 6 13 3 7 1022.9 1022.8 3.0
28/09:30pm 16.4 16.4 15.3 93 0.6 NW 9 13 5 7 1022.7 1022.6 2.8
28/09:00pm 16.4 15.6 15.1 92 0.7 WNW 13 19 7 10 1022.5 1022.4 2.2
28/08:30pm 16.6 16.2 15.3 92 0.8 WNW 11 15 6 8 1022.3 1022.2 2.0
28/08:00pm 16.8 17.4 15.3 91 0.9 WSW 6 7 3 4 1022.5 1022.4 2.0
28/07:30pm 16.9 17.3 15.4 91 0.9 SW 7 11 4 6 1022.7 1022.6 1.6
28/07:00pm 16.6 16.9 15.1 91 0.9 WNW 7 11 4 6 1022.7 1022.6 1.6
28/06:30pm 17.0 15.9 15.3 90 1.0 SW 15 17 8 9 1022.8 1022.7 1.6
28/06:15pm 17.1 17.4 15.1 88 1.2 WSW 7 13 4 7 1022.8 1022.7 1.6
28/06:00pm 17.0 15.1 14.3 84 1.5 SSE 17 22 9 12 1023.1 1023.0 1.6
28/05:55pm 17.3 15.8 14.2 82 1.8 SSE 15 22 8 12 1023.2 1023.1 1.6
28/05:30pm 18.1 17.8 15.4 84 1.6 WNW 11 15 6 8 1022.9 1022.8 1.4
28/05:00pm 18.1 18.7 15.4 84 1.6 W 6 13 3 7 1022.9 1022.8 1.4
28/04:30pm 18.6 19.0 15.3 81 1.9 WNW 7 9 4 5 1022.8 1022.7 1.4
28/04:00pm 18.4 18.0 14.1 76 2.5 E 9 17 5 9 1022.9 1022.8 1.4
28/03:34pm 18.1 18.4 15.0 82 1.8 SE 7 24 4 13 1023.3 1023.2 1.4
28/03:30pm 18.1 18.6 15.0 82 1.8 SSE 6 9 3 5 1023.3 1023.2 1.4
28/03:23pm 18.4 19.0 15.3 82 1.8 S 6 9 3 5 1023.3 1023.2 1.4
28/03:00pm 18.9 19.3 14.8 77 2.4 WNW 6 11 3 6 1023.3 1023.2 0.8
28/02:30pm 18.1 18.4 14.6 80 2.0 NE 6 11 3 6 1023.5 1023.4 0.8
28/02:00pm 18.0 17.8 14.7 81 1.9 NNW 9 19 5 10 1023.7 1023.6 0.8
28/01:30pm 17.6 17.7 15.6 88 1.2 WSW 9 13 5 7 1023.7 1023.6 0.8
28/01:25pm 17.7 17.5 15.7 88 1.2 SW 11 15 6 8 1023.8 1023.7 0.8
28/01:10pm 17.9 18.7 15.9 88 1.2 WNW 6 7 3 4 1023.8 1023.7 0.8
28/01:00pm 17.4 17.9 15.0 86 1.4 NW 6 9 3 5 1023.8 1023.7 0.6
28/12:30pm 17.6 17.9 16.1 91 0.9 E 9 13 5 7 1023.7 1023.6 0.6
28/12:22pm 17.5 18.2 16.2 92 0.8 SSE 7 11 4 6 1023.9 1023.8 0.6
28/12:07pm 17.7 17.8 16.4 92 0.8 S 11 15 6 8 1024.2 1024.1 0.6
28/12:00pm 17.5 17.5 16.2 92 0.8 SSW 11 13 6 7 1024.2 1024.1 0.6
28/11:30am 17.8 18.3 16.5 92 0.8 WSW 9 13 5 7 1024.2 1024.1 0.4
28/11:20am 17.4 18.0 15.9 91 0.9 SW 7 11 4 6 1024.2 1024.1 0.4
28/11:00am 17.6 17.9 16.1 91 0.9 SW 9 11 5 6 1024.0 1023.9 0.4
28/10:39am 17.5 17.7 15.8 90 1.0 WSW 9 11 5 6 1023.9 1023.8 0.0
28/10:30am 17.7 18.1 16.2 91 0.9 S 9 15 5 8 1023.8 1023.7 0.0
28/10:20am 17.3 17.1 15.8 91 0.9 SSW 11 15 6 8 1024.0 1023.9 0.0
28/10:00am 17.7 17.8 16.4 92 0.8 W 11 15 6 8 1023.5 1023.4 0.0
28/09:30am 17.3 16.9 16.2 93 0.7 W 13 17 7 9 1023.6 1023.5 0.0
28/09:00am 16.9 16.4 15.9 94 0.6 WSW 13 19 7 10 1023.5 1023.4 8.4
28/08:30am 17.0 17.3 15.9 93 0.6 W 9 13 5 7 1023.1 1023.0 8.4
28/08:04am 16.9 17.5 15.9 94 0.6 E 7 11 4 6 1022.9 1022.8 8.2
28/08:00am 16.9 17.5 15.9 94 0.6 SSE 7 13 4 7 1022.9 1022.8 8.2
28/07:51am 16.8 16.6 15.8 94 0.6 SW 11 13 6 7 1022.9 1022.8 8.2
28/07:46am 16.7 16.5 15.7 94 0.6 WSW 11 19 6 10 1022.9 1022.8 8.2
28/07:31am 16.8 17.0 15.8 94 0.6 SW 9 13 5 7 1022.8 1022.7 8.2
28/07:30am 16.8 17.0 15.8 94 0.6 WSW 9 13 5 7 1022.8 1022.7 8.0
28/07:00am 16.7 16.5 15.7 94 0.6 W 11 17 6 9 1022.4 1022.3 7.6
28/06:30am 16.5 16.6 15.5 94 0.6 W 9 13 5 7 1021.7 1021.6 7.6
28/06:00am 16.8 16.2 15.7 93 0.6 WSW 13 19 7 10 1021.6 1021.5 7.4
28/05:53am 16.9 16.7 15.8 93 0.6 W 11 15 6 8 1021.6 1021.5 7.4
28/05:30am 17.3 18.1 15.8 91 0.9 SE 6 7 3 4 1021.4 1021.3 7.0
28/05:00am 17.5 16.8 15.5 88 1.2 SE 13 20 7 11 1021.2 1021.1 6.4
28/04:59am 17.6 17.0 15.6 88 1.2 SE 13 24 7 13 1021.2 1021.1 6.4
28/04:30am 17.9 17.2 15.5 86 1.4 SSE 13 20 7 11 1020.9 1020.8 6.2
28/04:00am 18.2 17.9 15.5 84 1.6 SSE 11 20 6 11 1020.8 1020.7 6.0
28/03:30am 17.2 17.6 15.2 88 1.2 WSW 7 17 4 9 1020.6 1020.5 6.0
28/03:17am 17.5 17.0 15.0 85 1.5 ENE 11 15 6 8 1020.7 1020.6 6.0
28/03:00am 18.0 16.4 14.9 82 1.8 ESE 17 24 9 13 1020.9 1020.8 6.0
28/02:30am 17.4 17.7 15.9 91 0.9 SSW 9 17 5 9 1020.6 1020.5 5.6
28/02:00am 17.3 18.0 15.5 89 1.0 WNW 6 11 3 6 1020.7 1020.6 5.6
28/01:44am 17.8 18.2 15.4 86 1.4 N 7 11 4 6 1020.7 1020.6 5.4
28/01:30am 18.1 16.9 15.0 82 1.8 E 15 26 8 14 1021.0 1020.9 5.4
28/01:21am 18.2 16.6 15.1 82 1.8 ESE 17 26 9 14 1021.2 1021.1 5.4
28/01:00am 18.3 17.9 16.3 88 1.2 SSE 13 19 7 10 1021.4 1021.3 5.4
28/12:30am 18.6 18.1 16.0 85 1.5 E 13 20 7 11 1021.2 1021.1 5.0
28/12:27am 18.5 17.6 15.9 85 1.5 E 15 20 8 11 1021.1 1021.0 5.0
28/12:06am 18.2 16.7 16.2 88 1.2 SE 19 30 10 16 1021.0 1020.9 4.6
28/12:00am 18.6 17.1 16.4 87 1.3 SE 19 28 10 15 1021.0 1020.9 4.6
 
Date/Time
EDT
Temp
°C
App
Temp
°C
Dew
Point
°C
Rel
Hum
%
Delta-T
°C
Wind Press
QNH
hPa
Press
MSL
hPa
Rain since
9am
mm
Dir  Spd
km/h
Gust
km/h
Spd
kts
Gust
kts
27/11:30pm 18.5 17.2 15.9 85 1.5 ESE 17 24 9 13 1021.0 1020.9 4.6
27/11:02pm 18.9 18.4 16.0 83 1.7 SSE 13 22 7 12 1020.7 1020.6 4.4
27/11:00pm 19.0 18.5 16.0 83 1.8 SE 13 22 7 12 1020.7 1020.6 4.4
27/10:44pm 18.6 16.9 16.2 86 1.4 SE 20 30 11 16 1020.7 1020.6 4.4
27/10:30pm 18.8 17.7 16.4 86 1.4 ESE 17 24 9 13 1020.7 1020.6 4.2
27/10:20pm 18.4 17.8 16.6 89 1.1 SSE 15 22 8 12 1020.6 1020.5 4.2
27/10:00pm 18.2 18.5 17.0 93 0.7 SSE 11 20 6 11 1020.5 1020.4 3.6
27/09:54pm 18.1 18.8 17.1 94 0.6 WSW 9 13 5 7 1020.3 1020.2 3.6
27/09:40pm 18.1 18.8 17.1 94 0.6 WSW 9 13 5 7 1020.1 1020.0 3.2
27/09:30pm 18.2 18.6 17.2 94 0.6 SW 11 19 6 10 1020.1 1020.0 3.2
27/09:14pm 18.3 18.3 17.3 94 0.6 SSW 13 20 7 11 1019.9 1019.8 2.6
27/09:00pm 18.5 19.0 17.5 94 0.6 S 11 15 6 8 1019.6 1019.5 2.0
27/08:54pm 18.5 19.0 17.5 94 0.6 S 11 15 6 8 1019.4 1019.3 2.0
27/08:50pm 18.5 19.4 17.5 94 0.6 SSE 9 13 5 7 1019.4 1019.3 2.0
27/08:30pm 18.3 18.7 17.3 94 0.6 S 11 13 6 7 1019.4 1019.3 1.8
27/08:29pm 18.4 19.2 17.4 94 0.6 S 9 13 5 7 1019.4 1019.3 1.8
27/08:27pm 18.3 19.1 17.3 94 0.6 S 9 13 5 7 1019.3 1019.2 1.8
27/08:00pm 18.4 19.2 17.2 93 0.7 SSE 9 13 5 7 1019.3 1019.2 1.4
27/07:30pm 18.5 16.6 16.7 89 1.1 SSE 22 30 12 16 1019.1 1019.0 0.2
27/07:25pm 19.0 17.4 16.6 86 1.4 SSE 20 30 11 16 1018.9 1018.8 0.0
27/07:00pm 20.1 18.0 14.7 71 3.1 S 19 26 10 14 1018.4 1018.3 0.0
27/06:30pm 20.2 18.0 14.3 69 3.4 S 19 28 10 15 1018.2 1018.1 0.0
27/06:00pm 20.4 17.8 13.8 66 3.8 S 20 28 11 15 1017.7 1017.6 0.0
27/05:30pm 20.8 17.7 13.3 62 4.3 S 22 32 12 17 1017.4 1017.3 0.0
27/05:00pm 20.8 17.9 13.0 61 4.4 S 20 28 11 15 1017.2 1017.1 0.0
27/04:30pm 21.0 18.4 13.2 61 4.5 SSE 19 22 10 12 1017.1 1017.0 0.0
27/04:00pm 20.8 18.3 12.2 58 4.8 SSE 17 24 9 13 1017.1 1017.0 0.0
27/03:30pm 21.7 20.0 12.5 56 5.2 S 13 15 7 8 1016.8 1016.7 0.0
27/03:00pm 21.5 19.6 12.9 58 4.9 SW 15 20 8 11 1017.0 1016.9 0.0
27/02:30pm 21.6 19.3 11.6 53 5.6 S 15 20 8 11 1017.1 1017.0 0.0
27/02:00pm 20.8 17.5 10.9 53 5.4 SSW 19 26 10 14 1017.0 1016.9 0.0
27/01:30pm 20.8 19.0 13.3 62 4.3 SSW 15 20 8 11 1016.9 1016.8 0.0
27/01:00pm 20.2 16.6 12.9 63 4.1 S 24 32 13 17 1016.9 1016.8 0.0
27/12:30pm 19.2 15.3 12.2 64 3.9 S 24 33 13 18 1016.7 1016.6 0.0
27/12:00pm 18.9 15.3 12.9 68 3.4 S 24 37 13 20 1016.6 1016.5 0.0
27/11:30am 18.7 14.8 13.3 71 3.1 S 26 35 14 19 1016.3 1016.2 0.0
27/11:00am 18.8 15.9 13.9 73 2.8 S 22 32 12 17 1015.9 1015.8 0.0
27/10:30am 18.6 14.8 13.7 73 2.8 S 26 35 14 19 1015.5 1015.4 0.0
27/10:00am 18.5 15.5 13.8 74 2.7 S 22 32 12 17 1015.3 1015.2 0.0
27/09:30am 18.7 15.6 14.4 76 2.5 S 24 33 13 18 1014.7 1014.6 0.0
27/09:00am 18.6 16.2 14.5 77 2.4 S 20 33 11 18 1014.6 1014.5 11.8
27/08:30am 18.7 16.0 14.6 77 2.4 S 22 32 12 17 1013.9 1013.8 11.8
27/08:00am 18.3 18.2 15.9 86 1.4 SSW 11 17 6 9 1013.5 1013.4 11.8
27/07:30am 17.9 17.8 16.1 89 1.1 SSW 11 17 6 9 1012.9 1012.8 11.8
27/07:00am 17.9 17.8 15.9 88 1.2 SSW 11 17 6 9 1012.4 1012.3 11.8
27/06:30am 17.7 17.6 16.0 90 1.0 SSW 11 17 6 9 1011.9 1011.8 11.8
27/06:00am 17.7 18.1 16.2 91 0.9 SSW 9 15 5 8 1011.4 1011.3 11.6
27/05:30am 17.7 18.1 16.2 91 0.9 SW 9 13 5 7 1010.8 1010.7 11.6
27/05:00am 17.7 18.1 16.2 91 0.9 SW 9 15 5 8 1010.2 1010.1 11.6
27/04:30am 17.8 18.1 16.1 90 1.0 WSW 9 11 5 6 1010.0 1009.9 11.6
27/04:00am 18.2 17.7 16.0 87 1.3 SSW 13 17 7 9 1009.7 1009.6 11.6
27/03:30am 18.0 18.4 16.2 89 1.1 SSW 9 15 5 8 1009.6 1009.5 11.6
27/03:00am 18.1 18.0 16.1 88 1.2 SSW 11 17 6 9 1009.5 1009.4 11.6
27/02:30am 17.8 17.8 16.3 91 0.9 SW 11 17 6 9 1009.6 1009.5 11.6
27/02:00am 17.9 18.3 16.2 90 1.0 SSW 9 17 5 9 1009.2 1009.1 11.6
27/01:30am 18.2 18.3 16.4 89 1.1 SSW 11 15 6 8 1009.1 1009.0 11.4
27/01:00am 18.2 16.8 16.5 90 1.0 S 19 32 10 17 1008.8 1008.7 11.4
27/12:40am 17.9 18.2 16.9 94 0.6 S 11 19 6 10 1008.8 1008.7 11.4
27/12:30am 17.9 18.2 16.9 94 0.6 SSW 11 15 6 8 1008.8 1008.7 11.4
27/12:19am 17.9 18.6 17.1 95 0.5 SSW 9 13 5 7 1008.7 1008.6 11.4
27/12:15am 17.9 18.6 17.1 95 0.5 SSW 9 15 5 8 1008.6 1008.5 11.4
27/12:00am 17.9 18.2 16.9 94 0.6 S 11 15 6 8 1008.5 1008.4 11.2
 
Date/Time
EDT
Temp
°C
App
Temp
°C
Dew
Point
°C
Rel
Hum
%
Delta-T
°C
Wind Press
QNH
hPa
Press
MSL
hPa
Rain since
9am
mm
Dir  Spd
km/h
Gust
km/h
Spd
kts
Gust
kts
26/11:41pm 17.8 16.9 16.8 94 0.6 S 17 22 9 12 1008.4 1008.3 11.2
26/11:32pm 17.9 17.0 16.9 94 0.6 S 17 26 9 14 1008.3 1008.2 11.0
26/11:31pm 17.9 16.6 16.9 94 0.6 S 19 26 10 14 1008.3 1008.2 11.0
26/11:30pm 17.9 16.6 16.9 94 0.6 S 19 26 10 14 1008.2 1008.1 11.0
26/11:14pm 18.2 16.9 17.2 94 0.6 S 20 30 11 16 1008.1 1008.0 10.8
26/11:04pm 18.4 16.8 17.4 94 0.6 S 22 35 12 19 1008.0 1007.9 10.6
26/11:00pm 18.6 17.4 17.6 94 0.6 S 20 35 11 19 1008.0 1007.9 10.6
26/10:51pm 19.0 18.7 18.2 95 0.5 S 17 22 9 12 1008.0 1007.9 10.6
26/10:40pm 19.1 18.2 18.3 95 0.5 S 20 28 11 15 1007.8 1007.7 10.2
26/10:30pm 19.2 18.4 18.4 95 0.5 S 20 30 11 16 1007.7 1007.6 10.0
26/10:00pm 19.3 18.5 18.5 95 0.5 S 20 30 11 16 1007.2 1007.1 9.4
26/09:30pm 19.4 17.9 18.6 95 0.5 S 24 35 13 19 1006.6 1006.5 9.0
26/09:00pm 19.3 17.4 18.5 95 0.5 S 26 39 14 21 1006.2 1006.1 8.6
26/08:50pm 19.4 17.9 18.6 95 0.5 S 24 35 13 19 1006.1 1006.0 8.6
26/08:33pm 19.7 18.3 18.9 95 0.5 S 24 35 13 19 1006.0 1005.9 8.4
26/08:30pm 19.9 18.3 19.1 95 0.5 S 26 37 14 20 1005.9 1005.8 8.2
26/08:19pm 19.9 18.3 19.1 95 0.5 S 26 37 14 20 1005.8 1005.7 7.6
26/08:01pm 20.2 19.1 19.4 95 0.5 S 24 33 13 18 1005.4 1005.3 6.8
26/08:00pm 20.2 19.1 19.4 95 0.5 S 24 33 13 18 1005.4 1005.3 6.6
26/07:34pm 20.6 19.3 19.8 95 0.5 S 26 39 14 21 1004.6 1004.5 6.0
26/07:30pm 20.6 19.3 19.8 95 0.5 S 26 39 14 21 1004.5 1004.4 6.0
26/07:13pm 20.6 18.5 19.8 95 0.5 S 30 48 16 26 1004.4 1004.3 5.4
26/07:03pm 20.6 18.0 19.8 95 0.5 S 33 46 18 25 1003.9 1003.8 5.2
26/07:01pm 20.7 18.3 19.9 95 0.5 S 32 46 17 25 1003.9 1003.8 4.8
26/07:00pm 20.7 18.3 19.9 95 0.5 S 32 46 17 25 1004.0 1003.9 4.8
26/06:51pm 20.7 18.3 19.9 95 0.5 S 32 44 17 24 1003.7 1003.6 4.4
26/06:43pm 20.9 18.6 20.1 95 0.5 S 32 46 17 25 1003.5 1003.4 3.4
26/06:35pm 20.9 18.0 20.1 95 0.5 S 35 46 19 25 1003.1 1003.0 3.2
26/06:30pm 20.9 18.0 20.1 95 0.5 S 35 46 19 25 1002.8 1002.7 3.2
26/06:15pm 21.3 18.0 20.1 93 0.8 S 37 56 20 30 1002.3 1002.2 0.8
26/06:01pm 22.5 20.0 19.7 84 1.8 S 32 57 17 31 1001.7 1001.6 0.0
26/06:00pm 22.6 20.1 19.8 84 1.8 S 32 44 17 24 1001.7 1001.6 0.0
26/05:49pm 23.3 22.2 18.6 75 3.0 SSE 22 43 12 23 1001.0 1000.9 0.0
26/05:34pm 24.3 25.4 18.9 72 3.4 SSE 11 15 6 8 1000.1 1000.0 0.0
26/05:30pm 24.3 25.3 18.7 71 3.6 SE 11 15 6 8 999.9 999.8 0.0
26/05:19pm 25.2 28.0 19.6 71 3.6 NNE 4 11 2 6 999.8 999.7 0.0
26/05:00pm 25.7 27.6 19.8 70 3.8 W 9 15 5 8 999.7 999.6 0.0
26/04:30pm 25.7 27.7 20.0 71 3.7 ENE 9 13 5 7 999.4 999.3 0.0
26/04:00pm 26.2 28.4 19.3 65 4.5 ENE 6 9 3 5 999.4 999.3 0.0
26/03:30pm 25.4 27.3 18.6 66 4.3 ENE 6 7 3 4 998.9 998.8 0.0
26/03:00pm 25.6 26.7 18.0 63 4.8 ENE 9 13 5 7 998.8 998.7 0.0
26/02:30pm 25.5 27.2 18.4 65 4.5 NE 7 11 4 6 998.9 998.8 0.0
26/02:00pm 27.1 29.4 16.7 53 6.5 CALM 0 0 0 0 999.0 998.9 0.0
26/01:39pm 27.9 29.1 15.9 48 7.4 NNE 4 7 2 4 999.0 998.9 0.0
26/01:30pm 27.6 28.3 16.2 49 7.0 ENE 7 11 4 6 998.9 998.8 0.0
26/01:29pm 27.7 28.5 16.3 49 7.1 ENE 7 11 4 6 998.9 998.8 0.0
26/01:24pm 28.2 29.3 15.5 46 7.8 ENE 4 11 2 6 998.9 998.8 0.0
26/01:00pm 29.8 32.4 17.6 48 7.8 CALM 0 0 0 0 999.1 999.0 0.0
26/12:59pm 29.9 32.7 18.0 48 7.6 CALM 0 0 0 0 999.2 999.1 0.0
26/12:30pm 31.1 33.1 15.9 40 9.5 CALM 0 6 0 3 999.3 999.2 0.0
26/12:00pm 32.2 31.2 12.4 30 11.8 NW 9 22 5 12 999.2 999.1 0.0
26/11:30am 34.4 32.8 13.8 29 12.6 WNW 15 30 8 16 998.7 998.6 0.0
26/11:00am 33.7 29.6 11.5 26 13.1 WNW 24 41 13 22 998.8 998.7 0.0
26/10:30am 33.9 30.6 11.7 26 13.1 NW 20 32 11 17 998.6 998.5 0.0
26/10:00am 33.1 30.0 11.6 27 12.7 NW 19 33 10 18 998.7 998.6 0.0
26/09:30am 34.4 30.5 12.1 26 13.3 NW 24 43 13 23 998.7 998.6 0.0
26/09:00am 32.5 29.1 11.1 27 12.5 NW 20 35 11 19 998.8 998.7 0.0
26/08:30am 32.2 29.4 11.4 28 12.1 NW 17 35 9 19 998.9 998.8 0.0
26/08:00am 30.4 29.2 12.8 34 10.5 NNW 11 26 6 14 998.9 998.8 0.0
26/07:30am 27.7 27.9 15.7 48 7.4 NNW 9 15 5 8 998.8 998.7 0.0
26/07:26am 26.6 26.9 15.9 51 6.5 NNW 9 15 5 8 998.8 998.7 0.0
26/07:00am 21.6 23.7 19.3 87 1.5 N 7 13 4 7 998.7 998.6 0.0
26/06:52am 21.4 23.7 19.5 89 1.2 N 6 13 3 7 998.7 998.6 0.0
26/06:30am 21.1 22.6 19.0 88 1.3 N 9 13 5 7 998.5 998.4 0.0
26/06:14am 20.9 23.5 18.3 85 1.6 NNE 2 9 1 5 998.4 998.3 0.0
26/06:00am 21.0 23.9 18.2 84 1.8 CALM 0 0 0 0 998.3 998.2 0.0
26/05:30am 21.1 22.2 18.1 83 1.9 N 9 17 5 9 998.2 998.1 0.0
26/05:00am 20.3 22.0 18.4 89 1.2 NNE 7 13 4 7 998.2 998.1 0.0
26/04:30am 20.6 22.3 18.5 88 1.3 N 7 9 4 5 998.2 998.1 0.0
26/04:00am 21.0 23.1 18.9 88 1.3 N 6 9 3 5 998.4 998.3 0.0
26/03:44am 21.0 22.9 18.9 88 1.3 N 7 9 4 5 998.5 998.4 0.0
26/03:30am 21.0 23.0 19.1 89 1.2 N 7 9 4 5 998.8 998.7 0.0
26/03:00am 21.0 23.1 18.9 88 1.3 NNE 6 9 3 5 999.2 999.1 0.0

Other formats

Comma delimited format used in spreadsheet applications
http://www.bom.gov.au/fwo/IDN60801/IDN60801.95937.axf

JavaScript Object Notation format (JSON) in row-major order
http://www.bom.gov.au/fwo/IDN60801/IDN60801.95937.json

Data quality

Most of these data are generated automatically and are frequently updated. Quality checks on data are not normally performed. It is possible for incorrect values to appear. Refer to information at About Latest Weather Observations and please check the disclaimer before using these data.